createdAt,value
2022-09-12T00:00:17.046Z,99.90
2022-09-12T00:02:44.703Z,99.90
2022-09-12T00:05:12.465Z,99.90
2022-09-12T00:07:40.955Z,99.90
2022-09-12T00:10:12.553Z,99.90
2022-09-12T00:12:41.479Z,99.90
2022-09-12T00:15:09.442Z,99.90
2022-09-12T00:17:39.236Z,99.90
2022-09-12T00:20:09.567Z,99.90
2022-09-12T00:22:37.658Z,99.90
2022-09-12T00:25:06.764Z,99.90
2022-09-12T00:27:34.857Z,99.90
2022-09-12T00:30:02.598Z,99.90
2022-09-12T00:32:30.372Z,99.90
2022-09-12T00:34:58.658Z,99.90
2022-09-12T00:37:26.523Z,99.90
2022-09-12T00:40:02.594Z,99.90
2022-09-12T00:42:33.563Z,99.90
2022-09-12T00:45:06.039Z,99.90
2022-09-12T00:47:35.530Z,99.90
2022-09-12T00:50:21.728Z,99.90
2022-09-12T00:52:58.704Z,99.90
2022-09-12T00:55:28.651Z,99.90
2022-09-12T00:57:58.716Z,99.90
2022-09-12T01:00:28.657Z,99.90
2022-09-12T01:03:02.250Z,99.90
2022-09-12T01:05:32.970Z,99.90
2022-09-12T01:08:01.953Z,99.90
2022-09-12T01:10:30.183Z,99.90
2022-09-12T01:12:58.053Z,99.90
2022-09-12T01:15:26.481Z,99.90
2022-09-12T01:18:09.091Z,99.90
2022-09-12T01:20:59.315Z,99.90
2022-09-12T01:23:36.596Z,99.90
2022-09-12T01:26:23.966Z,99.90
2022-09-12T01:29:14.568Z,99.90
2022-09-12T01:31:48.936Z,99.90
2022-09-12T01:34:39.360Z,99.90
2022-09-12T01:37:23.862Z,99.90
2022-09-12T01:40:03.862Z,99.90
2022-09-12T01:42:36.253Z,99.90
2022-09-12T01:45:10.525Z,99.90
2022-09-12T01:47:57.927Z,99.90
2022-09-12T01:50:28.325Z,99.90
2022-09-12T01:53:06.414Z,99.90
2022-09-12T01:55:40.424Z,99.90
2022-09-12T01:58:53.987Z,99.90
2022-09-12T02:04:35.506Z,99.90
2022-09-12T02:07:08.695Z,99.90
2022-09-12T02:09:43.853Z,99.90
2022-09-12T02:12:12.728Z,99.90
2022-09-12T02:14:43.589Z,99.90
2022-09-12T02:20:03.466Z,99.90
2022-09-12T02:22:32.529Z,99.90
2022-09-12T02:25:04.497Z,99.90
2022-09-12T02:27:51.854Z,99.90
2022-09-12T02:30:32.794Z,99.90
2022-09-12T02:33:13.388Z,99.90
2022-09-12T02:35:53.244Z,99.90
2022-09-12T02:38:36.491Z,99.90
2022-09-12T02:41:05.336Z,99.90
2022-09-12T02:43:33.151Z,99.90
2022-09-12T02:46:04.614Z,99.90
2022-09-12T02:48:34.871Z,99.90
2022-09-12T02:51:06.874Z,99.90
2022-09-12T02:53:48.903Z,99.90
2022-09-12T02:56:20.705Z,99.70
2022-09-12T02:58:48.820Z,99.90
2022-09-12T03:01:36.373Z,99.60
2022-09-12T03:04:17.163Z,99.80
2022-09-12T03:06:59.585Z,99.90
2022-09-12T03:09:46.986Z,99.90
2022-09-12T03:12:25.414Z,99.90
2022-09-12T03:15:07.654Z,99.90
2022-09-12T03:17:57.015Z,99.90
2022-09-12T03:20:40.275Z,99.30
2022-09-12T03:23:27.756Z,99.10
2022-09-12T03:25:58.178Z,99.20
2022-09-12T03:28:26.418Z,98.60
2022-09-12T03:30:55.232Z,99.40
2022-09-12T03:33:41.347Z,98.30
2022-09-12T03:36:21.318Z,99.40
2022-09-12T03:38:49.066Z,99.20
2022-09-12T03:41:17.099Z,98.20
2022-09-12T03:43:45.478Z,99.10
2022-09-12T03:46:15.029Z,98.00
2022-09-12T03:48:44.489Z,97.90
2022-09-12T03:51:12.697Z,97.70
2022-09-12T03:53:40.955Z,97.50
2022-09-12T03:56:12.615Z,96.60
2022-09-12T03:58:43.552Z,95.90
2022-09-12T04:01:13.345Z,96.20
2022-09-12T04:03:50.079Z,96.60
2022-09-12T04:06:21.384Z,96.50
2022-09-12T04:08:51.231Z,96.00
2022-09-12T04:11:20.159Z,96.30
2022-09-12T04:13:48.793Z,93.80
2022-09-12T04:16:17.912Z,95.10
2022-09-12T04:18:46.089Z,94.20
2022-09-12T04:21:19.417Z,95.70
2022-09-12T04:23:48.617Z,94.90
2022-09-12T04:26:18.677Z,95.60
2022-09-12T04:28:51.462Z,96.10
2022-09-12T04:31:23.926Z,93.30
2022-09-12T04:34:05.586Z,95.50
2022-09-12T04:36:34.681Z,96.50
2022-09-12T04:39:03.822Z,96.50
2022-09-12T04:41:33.194Z,96.00
2022-09-12T04:44:08.558Z,96.10
2022-09-12T04:46:37.191Z,96.00
2022-09-12T04:49:05.313Z,95.40
2022-09-12T04:57:04.726Z,95.60
2022-09-12T04:59:33.630Z,95.50
2022-09-12T05:02:01.626Z,94.40
2022-09-12T05:04:30.296Z,95.60
2022-09-12T05:06:59.080Z,95.90
2022-09-12T05:09:26.774Z,91.80
2022-09-12T05:12:05.296Z,94.30
2022-09-12T05:14:34.431Z,93.90
2022-09-12T05:17:03.518Z,95.00
2022-09-12T05:19:31.773Z,93.50
2022-09-12T05:21:59.513Z,92.90
2022-09-12T05:24:28.346Z,93.20
2022-09-12T05:26:56.966Z,94.50
2022-09-12T05:29:27.878Z,95.00
2022-09-12T05:31:58.438Z,95.40
2022-09-12T05:34:26.150Z,94.00
2022-09-12T05:36:57.939Z,95.10
2022-09-12T05:39:27.033Z,93.10
2022-09-12T05:44:43.004Z,93.40
2022-09-12T05:47:18.079Z,92.90
2022-09-12T05:49:48.459Z,93.80
2022-09-12T05:52:21.394Z,91.60
2022-09-12T05:55:11.933Z,92.10
2022-09-12T05:57:46.626Z,91.60
2022-09-12T06:00:18.389Z,92.10
2022-09-12T06:02:49.114Z,92.50
2022-09-12T06:05:16.808Z,92.60
2022-09-12T06:07:52.101Z,93.60
2022-09-12T06:10:21.811Z,94.60
2022-09-12T06:12:50.926Z,93.00
2022-09-12T06:15:19.065Z,94.50
2022-09-12T06:17:52.980Z,94.50
2022-09-12T06:20:23.347Z,95.00
2022-09-12T06:22:54.225Z,95.10
2022-09-12T06:25:23.066Z,94.60
2022-09-12T06:27:52.012Z,95.00
2022-09-12T06:30:24.757Z,95.20
2022-09-12T06:32:54.538Z,95.20
2022-09-12T06:35:22.226Z,95.20
2022-09-12T06:37:54.120Z,95.50
2022-09-12T06:40:22.890Z,95.40
2022-09-12T06:42:51.495Z,95.30
2022-09-12T06:45:23.147Z,95.30
2022-09-12T06:47:53.142Z,94.90
2022-09-12T06:50:22.755Z,95.00
2022-09-12T06:52:55.084Z,94.90
2022-09-12T06:55:27.849Z,95.40
2022-09-12T06:57:56.828Z,95.80
2022-09-12T07:00:28.381Z,95.90
2022-09-12T07:02:59.179Z,95.80
2022-09-12T07:05:29.930Z,96.00
2022-09-12T07:07:58.607Z,96.10
2022-09-12T07:10:28.060Z,96.80
2022-09-12T07:13:02.538Z,96.80
2022-09-12T07:15:30.253Z,96.90
2022-09-12T07:18:29.266Z,97.10
2022-09-12T07:21:10.071Z,97.10
2022-09-12T07:26:17.429Z,96.40
2022-09-12T07:29:00.562Z,96.60
2022-09-12T07:31:39.045Z,96.60
2022-09-12T07:34:07.748Z,96.90
2022-09-12T07:36:37.049Z,97.00
2022-09-12T07:39:04.769Z,97.10
2022-09-12T07:41:36.166Z,97.10
2022-09-12T07:44:07.341Z,97.20
2022-09-12T07:46:35.855Z,97.30
2022-09-12T07:49:05.176Z,97.70
2022-09-12T07:51:36.991Z,97.30
2022-09-12T07:54:11.491Z,97.30
2022-09-12T07:56:39.694Z,97.40
2022-09-12T07:59:08.885Z,97.30
2022-09-12T08:01:37.671Z,97.30
2022-09-12T08:04:05.654Z,97.40
2022-09-12T08:06:36.336Z,97.40
2022-09-12T08:09:05.548Z,97.40
2022-09-12T08:11:33.318Z,97.40
2022-09-12T08:14:03.637Z,97.30
2022-09-12T08:16:33.220Z,97.40
2022-09-12T08:19:04.056Z,97.50
2022-09-12T08:21:33.844Z,97.60
2022-09-12T08:24:03.154Z,97.50
2022-09-12T08:26:32.643Z,97.60
2022-09-12T08:29:00.404Z,97.60
2022-09-12T08:31:28.725Z,97.60
2022-09-12T08:33:59.842Z,97.50
2022-09-12T08:36:31.239Z,97.60
2022-09-12T08:39:05.053Z,97.60
2022-09-12T08:41:35.840Z,97.60
2022-09-12T08:44:23.676Z,97.60
2022-09-12T08:47:11.067Z,97.70
2022-09-12T08:50:00.639Z,97.60
2022-09-12T08:52:48.897Z,97.70
2022-09-12T08:55:32.573Z,97.70
2022-09-12T08:58:01.594Z,97.80
2022-09-12T09:00:39.335Z,97.80
2022-09-12T09:03:22.190Z,97.90
2022-09-12T09:06:01.552Z,97.90
2022-09-12T09:08:49.744Z,98.00
2022-09-12T09:11:31.082Z,98.00
2022-09-12T09:14:30.560Z,98.10
2022-09-12T09:17:01.519Z,98.10
2022-09-12T09:19:34.172Z,98.10
2022-09-12T09:22:06.236Z,98.20
2022-09-12T09:24:38.437Z,98.20
2022-09-12T09:27:29.891Z,98.20
2022-09-12T09:29:57.679Z,98.20
2022-09-12T09:32:34.309Z,98.20
2022-09-12T09:35:03.299Z,98.10
2022-09-12T09:37:43.226Z,98.10
2022-09-12T09:40:26.494Z,98.00
2022-09-12T09:43:02.428Z,97.90
2022-09-12T09:45:33.250Z,97.70
2022-09-12T09:48:05.443Z,97.80
2022-09-12T09:50:34.261Z,97.60
2022-09-12T09:53:06.611Z,97.60
2022-09-12T09:55:41.701Z,97.50
2022-09-12T09:58:09.577Z,97.40
2022-09-12T10:00:38.375Z,97.50
2022-09-12T10:03:26.809Z,97.50
2022-09-12T10:05:56.783Z,97.50
2022-09-12T10:08:29.149Z,97.40
2022-09-12T10:10:58.601Z,97.50
2022-09-12T10:13:42.281Z,97.60
2022-09-12T10:16:23.763Z,97.70
2022-09-12T10:18:53.000Z,97.80
2022-09-12T10:21:41.807Z,97.80
2022-09-12T10:24:22.770Z,97.80
2022-09-12T10:26:56.959Z,97.90
2022-09-12T10:29:28.803Z,98.00
2022-09-12T10:32:02.523Z,98.20
2022-09-12T10:34:33.112Z,98.00
2022-09-12T10:37:08.108Z,98.00
2022-09-12T10:39:37.148Z,98.30
2022-09-12T10:42:06.234Z,98.10
2022-09-12T10:44:35.210Z,98.20
2022-09-12T10:47:22.498Z,98.20
2022-09-12T10:49:52.394Z,98.20
2022-09-12T10:52:27.369Z,98.20
2022-09-12T10:54:56.000Z,98.30
2022-09-12T10:57:45.036Z,98.40
2022-09-12T11:00:16.473Z,98.40
2022-09-12T11:02:58.761Z,98.40
2022-09-12T11:05:39.572Z,98.50
2022-09-12T11:08:19.559Z,98.50
2022-09-12T11:11:00.393Z,98.60
2022-09-12T11:13:41.212Z,98.60
2022-09-12T11:16:28.545Z,98.90
2022-09-12T11:19:15.870Z,98.90
2022-09-12T11:21:55.769Z,99.00
2022-09-12T11:24:35.786Z,99.20
2022-09-12T11:27:16.572Z,99.30
2022-09-12T11:30:03.900Z,99.40
2022-09-12T11:32:43.772Z,99.40
2022-09-12T11:35:25.955Z,99.70
2022-09-12T11:38:05.923Z,99.90
2022-09-12T11:40:55.793Z,99.80
2022-09-12T11:43:43.004Z,99.80
2022-09-12T11:46:30.586Z,99.90
2022-09-12T11:49:00.535Z,99.90
2022-09-12T11:51:41.415Z,99.90
2022-09-12T11:54:21.630Z,99.90
2022-09-12T11:56:51.831Z,99.90
2022-09-12T11:59:39.680Z,99.90
2022-09-12T12:02:12.365Z,99.90
2022-09-12T12:04:46.211Z,99.90
2022-09-12T12:07:13.883Z,99.90
2022-09-12T12:09:49.827Z,99.90
2022-09-12T12:12:21.726Z,99.90
2022-09-12T12:14:50.970Z,99.90
2022-09-12T12:17:21.305Z,99.90
2022-09-12T12:20:00.020Z,99.90
2022-09-12T12:22:30.275Z,99.90
2022-09-12T12:25:10.519Z,99.90
2022-09-12T12:27:49.651Z,99.90
2022-09-12T12:30:29.913Z,99.90
2022-09-12T12:33:01.081Z,99.90
2022-09-12T12:35:49.256Z,99.90
2022-09-12T12:38:30.913Z,99.90
2022-09-12T12:41:10.862Z,99.90
2022-09-12T12:43:39.394Z,99.90
2022-09-12T12:46:08.770Z,99.90
2022-09-12T12:48:44.112Z,99.90
2022-09-12T12:51:24.930Z,99.90
2022-09-12T12:53:53.255Z,99.90
2022-09-12T12:56:28.087Z,99.90
2022-09-12T12:59:00.973Z,99.90
2022-09-12T13:01:28.990Z,99.90
2022-09-12T13:03:59.704Z,99.90
2022-09-12T13:06:38.144Z,99.90
2022-09-12T13:09:09.228Z,99.90
2022-09-12T13:11:40.129Z,99.90
2022-09-12T13:14:19.997Z,99.90
2022-09-12T13:16:59.953Z,99.90
2022-09-12T13:19:33.711Z,99.90
2022-09-12T13:22:02.888Z,99.90
2022-09-12T13:24:31.655Z,99.90
2022-09-12T13:27:00.246Z,99.90
2022-09-12T13:29:28.731Z,99.90
2022-09-12T13:31:57.734Z,99.90
2022-09-12T13:34:32.583Z,99.90
2022-09-12T13:37:12.575Z,99.90
2022-09-12T13:39:59.875Z,99.90
2022-09-12T13:42:38.628Z,99.90
2022-09-12T13:45:24.387Z,99.90
2022-09-12T13:47:58.845Z,99.90
2022-09-12T13:50:37.544Z,99.90
2022-09-12T13:53:07.178Z,99.90
2022-09-12T13:55:42.266Z,99.90
2022-09-12T13:58:23.100Z,99.90
2022-09-12T14:01:03.097Z,99.90
2022-09-12T14:03:44.789Z,99.90
2022-09-12T14:06:13.133Z,99.90
2022-09-12T14:08:41.949Z,99.90
2022-09-12T14:11:11.379Z,99.90
2022-09-12T14:13:39.647Z,99.90
2022-09-12T14:16:11.355Z,99.90
2022-09-12T14:18:40.450Z,99.90
2022-09-12T14:21:13.166Z,99.90
2022-09-12T14:23:42.452Z,99.90
2022-09-12T14:26:12.449Z,99.90
2022-09-12T14:28:43.217Z,99.90
2022-09-12T14:31:22.741Z,99.90
2022-09-12T14:33:54.846Z,99.90
2022-09-12T14:36:32.602Z,99.90
2022-09-12T14:39:02.224Z,99.90
2022-09-12T14:41:31.814Z,99.90
2022-09-12T14:44:00.649Z,99.90
2022-09-12T14:46:31.276Z,99.90
2022-09-12T14:49:02.537Z,99.90
2022-09-12T14:51:35.545Z,99.90
2022-09-12T14:54:03.328Z,99.90
2022-09-12T14:56:41.701Z,99.90
2022-09-12T14:59:21.683Z,99.90
2022-09-12T15:01:49.374Z,99.90
2022-09-12T15:04:36.729Z,99.90
2022-09-12T15:07:15.017Z,99.90
2022-09-12T15:09:47.232Z,99.90
2022-09-12T15:12:15.171Z,99.90
2022-09-12T15:14:42.998Z,99.90
2022-09-12T15:17:10.668Z,99.90
2022-09-12T15:19:38.344Z,99.90
2022-09-12T15:22:06.993Z,99.90
2022-09-12T15:24:34.685Z,99.90
2022-09-12T15:27:02.663Z,99.90
2022-09-12T15:29:30.335Z,99.90
2022-09-12T15:31:58.031Z,99.90
2022-09-12T15:34:25.679Z,99.90
2022-09-12T15:36:53.395Z,99.90
2022-09-12T15:39:21.101Z,99.90
2022-09-12T15:41:48.826Z,99.90
2022-09-12T15:44:16.494Z,99.90
2022-09-12T15:46:44.253Z,99.90
2022-09-12T15:49:11.914Z,99.90
2022-09-12T15:51:41.291Z,99.90
2022-09-12T15:54:13.995Z,99.90
2022-09-12T15:56:42.599Z,99.90
2022-09-12T15:59:10.256Z,99.90
2022-09-12T16:01:38.072Z,99.90
2022-09-12T16:04:20.627Z,99.90
2022-09-12T16:06:48.424Z,99.90
2022-09-12T16:09:17.021Z,99.90
2022-09-12T16:11:45.571Z,99.90
2022-09-12T16:14:15.161Z,99.90
2022-09-12T16:16:43.473Z,99.90
2022-09-12T16:19:12.201Z,99.90
2022-09-12T16:21:39.890Z,99.90
2022-09-12T16:24:07.582Z,99.90
2022-09-12T16:26:36.457Z,99.90
2022-09-12T16:29:04.211Z,99.90
2022-09-12T16:31:32.142Z,99.90
2022-09-12T16:33:59.952Z,99.90
2022-09-12T16:36:27.612Z,99.90
2022-09-12T16:38:55.315Z,99.90
2022-09-12T16:41:26.331Z,99.90
2022-09-12T16:43:54.538Z,99.90
2022-09-12T16:46:26.661Z,99.90
2022-09-12T16:48:56.513Z,99.90
2022-09-12T16:51:26.284Z,99.90
2022-09-12T16:53:55.847Z,99.90
2022-09-12T16:56:24.995Z,99.90
2022-09-12T16:58:53.662Z,99.90
2022-09-12T17:01:22.420Z,99.90
2022-09-12T17:03:53.648Z,99.90
2022-09-12T17:06:22.217Z,99.90
2022-09-12T17:08:52.498Z,99.90
2022-09-12T17:11:22.891Z,99.90
2022-09-12T17:14:07.425Z,99.90
2022-09-12T17:16:36.390Z,99.90
2022-09-12T17:19:04.810Z,99.90
2022-09-12T17:21:32.447Z,99.90
2022-09-12T17:24:00.147Z,99.90
2022-09-12T17:26:28.049Z,99.90
2022-09-12T17:28:56.644Z,99.90
2022-09-12T17:31:24.486Z,99.90
2022-09-12T17:33:55.962Z,99.90
2022-09-12T17:36:24.474Z,99.90
2022-09-12T17:38:53.031Z,99.90
2022-09-12T17:41:22.221Z,99.90
2022-09-12T17:43:52.182Z,99.90
2022-09-12T17:46:20.319Z,99.90
2022-09-12T17:48:55.996Z,99.90
2022-09-12T17:51:25.365Z,99.90
2022-09-12T17:53:58.497Z,99.90
2022-09-12T17:56:28.304Z,99.90
2022-09-12T17:58:56.777Z,99.90
2022-09-12T18:01:37.019Z,99.90
2022-09-12T18:04:05.098Z,99.90
2022-09-12T18:06:33.884Z,99.90
2022-09-12T18:09:02.708Z,99.90
2022-09-12T18:11:30.449Z,99.90
2022-09-12T18:14:01.514Z,99.90
2022-09-12T18:16:31.740Z,99.90
2022-09-12T18:19:01.721Z,99.90
2022-09-12T18:21:29.620Z,99.90
2022-09-12T18:23:59.358Z,99.90
2022-09-12T18:26:28.415Z,99.90
2022-09-12T18:28:56.461Z,99.90
2022-09-12T18:31:28.207Z,99.90
2022-09-12T18:33:57.192Z,99.90
2022-09-12T18:36:25.166Z,99.90
2022-09-12T18:38:52.783Z,99.90
2022-09-12T18:41:21.691Z,99.90
2022-09-12T18:43:50.103Z,99.90
2022-09-12T18:46:19.080Z,99.90
2022-09-12T18:48:47.221Z,99.90
2022-09-12T18:51:16.291Z,99.90
2022-09-12T18:53:44.175Z,99.90
2022-09-12T18:56:13.536Z,99.90
2022-09-12T18:58:43.992Z,99.90
2022-09-12T19:01:16.756Z,99.90
2022-09-12T19:03:44.651Z,99.90
2022-09-12T19:06:16.202Z,99.90
2022-09-12T19:08:46.637Z,99.90
2022-09-12T19:11:15.228Z,99.90
2022-09-12T19:13:44.011Z,99.90
2022-09-12T19:16:14.646Z,99.90
2022-09-12T19:18:43.641Z,99.90
2022-09-12T19:21:16.332Z,99.90
2022-09-12T19:23:45.160Z,99.90
2022-09-12T19:26:14.109Z,99.90
2022-09-12T19:28:42.986Z,99.90
2022-09-12T19:31:12.500Z,99.90
2022-09-12T19:33:40.922Z,99.90
2022-09-12T19:36:22.172Z,99.90
2022-09-12T19:38:55.394Z,99.90
2022-09-12T19:41:23.065Z,99.90
2022-09-12T19:43:51.094Z,99.90
2022-09-12T19:46:21.437Z,99.90
2022-09-12T19:48:50.302Z,99.90
2022-09-12T19:51:18.179Z,99.90
2022-09-12T19:53:46.389Z,99.90
2022-09-12T19:56:15.163Z,99.90
2022-09-12T19:58:44.612Z,99.90
2022-09-12T20:01:13.851Z,99.90
2022-09-12T20:03:42.722Z,99.90
2022-09-12T20:06:11.627Z,99.90
2022-09-12T20:08:41.766Z,99.90
2022-09-12T20:11:10.201Z,99.90
2022-09-12T20:13:37.937Z,99.90
2022-09-12T20:16:20.427Z,99.90
2022-09-12T20:18:49.790Z,99.90
2022-09-12T20:21:19.204Z,99.90
2022-09-12T20:23:47.389Z,99.90
2022-09-12T20:26:15.498Z,99.90
2022-09-12T20:28:43.251Z,99.90
2022-09-12T20:31:12.296Z,99.90
2022-09-12T20:33:40.096Z,99.90
2022-09-12T20:36:12.602Z,99.90
2022-09-12T20:38:41.330Z,99.90
2022-09-12T20:41:10.282Z,99.90
2022-09-12T20:43:39.078Z,99.90
2022-09-12T20:46:08.070Z,99.90
2022-09-12T20:48:35.759Z,99.90
2022-09-12T20:51:03.412Z,99.90
2022-09-12T20:53:34.818Z,99.90
2022-09-12T20:56:03.801Z,99.90
2022-09-12T20:58:31.775Z,99.90
2022-09-12T21:01:01.904Z,99.90
2022-09-12T21:03:30.466Z,99.90
2022-09-12T21:05:58.214Z,99.90
2022-09-12T21:08:26.775Z,99.90
2022-09-12T21:10:54.373Z,99.90
2022-09-12T21:13:21.998Z,99.90
2022-09-12T21:15:50.065Z,99.90
2022-09-12T21:18:17.720Z,99.90
2022-09-12T21:20:51.628Z,99.90
2022-09-12T21:23:19.405Z,99.90
2022-09-12T21:25:52.353Z,99.90
2022-09-12T21:28:20.865Z,99.90
2022-09-12T21:30:49.176Z,99.90
2022-09-12T21:33:17.280Z,99.90
2022-09-12T21:35:45.012Z,99.90
2022-09-12T21:38:12.838Z,99.90
2022-09-12T21:40:41.600Z,99.90
2022-09-12T21:43:12.551Z,99.90
2022-09-12T21:45:41.055Z,99.90
2022-09-12T21:48:08.726Z,99.90
2022-09-12T21:50:37.355Z,99.90
2022-09-12T21:53:05.036Z,99.90
2022-09-12T21:55:32.702Z,99.90
2022-09-12T21:58:00.362Z,99.90
2022-09-12T22:00:29.048Z,99.90
2022-09-12T22:02:56.759Z,99.90
2022-09-12T22:05:25.833Z,99.90
2022-09-12T22:07:53.499Z,99.90
2022-09-12T22:10:21.180Z,99.90
2022-09-12T22:12:49.289Z,99.90
2022-09-12T22:15:38.941Z,99.90
2022-09-12T22:18:06.529Z,99.90
2022-09-12T22:20:34.234Z,99.90
2022-09-12T22:23:14.103Z,99.90
2022-09-12T22:25:41.880Z,99.90
2022-09-12T22:28:09.560Z,99.90
2022-09-12T22:30:37.870Z,99.90
2022-09-12T22:33:06.417Z,99.90
2022-09-12T22:35:34.106Z,99.90
2022-09-12T22:38:01.712Z,99.90
2022-09-12T22:40:29.271Z,99.90
2022-09-12T22:42:57.730Z,99.90
2022-09-12T22:45:26.195Z,99.90
2022-09-12T22:47:54.152Z,99.90
2022-09-12T22:50:21.849Z,99.90
2022-09-12T22:52:49.462Z,99.90
2022-09-12T22:55:17.193Z,99.90
2022-09-12T22:57:45.682Z,99.90
2022-09-12T23:00:13.614Z,99.90
2022-09-12T23:02:41.661Z,99.90
2022-09-12T23:05:09.484Z,99.90
2022-09-12T23:07:37.171Z,99.90
2022-09-12T23:10:05.329Z,99.90
2022-09-12T23:12:33.936Z,99.90
2022-09-12T23:15:01.537Z,99.90
2022-09-12T23:17:29.139Z,99.90
2022-09-12T23:19:57.764Z,99.90
2022-09-12T23:22:25.689Z,99.90
2022-09-12T23:24:53.591Z,99.90
2022-09-12T23:27:21.253Z,99.90
2022-09-12T23:29:52.626Z,99.90
2022-09-12T23:32:22.257Z,99.90
2022-09-12T23:34:49.961Z,99.90
2022-09-12T23:37:17.711Z,99.90
2022-09-12T23:39:45.555Z,99.90
2022-09-12T23:42:14.002Z,99.90
2022-09-12T23:44:42.511Z,99.90
2022-09-12T23:47:10.213Z,99.90
2022-09-12T23:49:38.850Z,99.90
2022-09-12T23:52:06.474Z,99.90
2022-09-12T23:54:34.033Z,99.90
2022-09-12T23:57:01.682Z,99.90
2022-09-12T23:59:32.161Z,99.90
